Time;durP1;ratioP1;P1;durP2;ratioP2;P2;SDS_P1;SDS_P2;PMS_P1;PMS_P2;Temp;Humidity;BMP_temperature;BMP_pressure;BME280_temperature;BME280_humidity;BME280_pressure;Samples;Min_cycle;Max_cycle;Signal;HPM_P1;HPM_P2
2024/01/08 00:00:57;;;;;;;;;22.00;18.50;;;;;8.01;83.03;101891.47;2099307;28;45952;-70
2024/01/08 00:01:57;;;;;;;;;26.00;24.50;;;;;7.99;83.34;101887.91;2101554;28;46206;-70
2024/01/08 00:02:58;;;;;;;;;23.00;21.00;;;;;7.98;82.94;101894.97;2103185;28;46175;-70
2024/01/08 00:03:58;;;;;;;;;21.75;20.50;;;;;7.98;83.08;101892.31;2098083;27;45082;-70
2024/01/08 00:04:59;;;;;;;;;19.75;18.75;;;;;7.98;83.03;101892.31;2097541;28;46959;-69
2024/01/08 00:05:59;;;;;;;;;23.00;21.75;;;;;7.98;82.81;101889.66;2100982;28;46344;-71
2024/01/08 00:06:59;;;;;;;;;22.00;19.00;;;;;7.99;83.21;101903.78;2097379;27;46598;-69
2024/01/08 00:07:59;;;;;;;;;21.25;21.25;;;;;8.00;82.96;101894.97;2103348;28;46906;-70
2024/01/08 00:09:00;;;;;;;;;20.25;20.25;;;;;8.00;82.88;101894.06;2098893;28;45918;-70
2024/01/08 00:10:00;;;;;;;;;24.75;24.75;;;;;7.95;82.97;101889.66;2101472;27;46156;-69
2024/01/08 00:11:01;;;;;;;;;24.25;24.25;;;;;7.94;83.08;101893.16;2102987;28;46202;-69
2024/01/08 00:12:01;;;;;;;;;21.50;21.50;;;;;7.94;83.05;101892.28;2098573;27;45747;-69
2024/01/08 00:13:02;;;;;;;;;22.75;22.75;;;;;7.94;82.89;101897.56;2103219;28;45578;-70
2024/01/08 00:14:02;;;;;;;;;22.25;20.75;;;;;7.92;82.93;101894.03;2101197;28;46323;-68
2024/01/08 00:15:03;;;;;;;;;23.25;21.75;;;;;7.89;83.11;101896.66;2100437;27;45749;-71
2024/01/08 00:16:04;;;;;;;;;26.25;23.50;;;;;7.88;83.12;101895.78;2097439;28;46594;-69
2024/01/08 00:17:04;;;;;;;;;26.00;22.50;;;;;7.87;82.91;101896.63;2098189;28;46830;-69
2024/01/08 00:18:04;;;;;;;;;25.25;22.75;;;;;7.86;83.30;101892.22;2101309;28;45973;-69
2024/01/08 00:19:05;;;;;;;;;21.00;21.00;;;;;7.84;82.92;101893.97;2099079;28;46047;-70
2024/01/08 00:20:06;;;;;;;;;25.75;23.75;;;;;7.81;82.88;101896.59;2100204;27;45863;-68
2024/01/08 00:21:07;;;;;;;;;21.20;21.20;;;;;7.84;82.57;101896.59;2090055;28;46537;-69
2024/01/08 00:22:07;;;;;;;;;26.25;23.25;;;;;7.85;82.67;101905.41;2100374;28;46719;-68
2024/01/08 00:23:08;;;;;;;;;21.25;21.25;;;;;7.84;82.23;101901.88;2099722;27;45309;-68
2024/01/08 00:24:08;;;;;;;;;21.40;19.00;;;;;7.83;82.80;101905.41;2097678;28;45543;-69
2024/01/08 00:25:09;;;;;;;;;24.00;23.25;;;;;7.83;82.29;101902.75;2097747;28;45244;-68
2024/01/08 00:26:09;;;;;;;;;18.50;16.25;;;;;7.81;82.33;101895.72;2098039;28;45830;-67
2024/01/08 00:27:09;;;;;;;;;24.00;21.50;;;;;7.81;82.37;101909.81;2105668;28;45983;-68
2024/01/08 00:28:09;;;;;;;;;20.50;19.25;;;;;7.79;82.41;101903.63;2105572;27;46509;-69
2024/01/08 00:29:10;;;;;;;;;27.00;26.00;;;;;7.79;81.94;101908.91;2097803;28;45543;-68
2024/01/08 00:30:10;;;;;;;;;21.25;20.75;;;;;7.75;82.00;101893.91;2104777;28;46681;-69
2024/01/08 00:31:11;;;;;;;;;24.25;21.00;;;;;7.77;82.19;101901.84;2104309;27;46224;-68
2024/01/08 00:32:11;;;;;;;;;21.50;21.25;;;;;7.76;82.27;101898.31;2106041;27;45880;-70
2024/01/08 00:33:11;;;;;;;;;24.25;21.50;;;;;7.77;82.07;101907.13;2104465;27;45810;-70
2024/01/08 00:34:12;;;;;;;;;23.00;23.00;;;;;7.76;81.84;101898.31;2104187;27;45562;-69
2024/01/08 00:35:13;;;;;;;;;12.50;12.00;;;;;7.79;81.69;101906.25;2105861;27;46012;-70
2024/01/08 00:36:13;;;;;;;;;22.25;21.75;;;;;7.78;82.06;101896.56;2104011;27;45588;-69
2024/01/08 00:37:14;;;;;;;;;24.25;23.00;;;;;7.80;81.45;101899.22;2105090;27;45899;-70
2024/01/08 00:38:14;;;;;;;;;20.25;19.25;;;;;7.79;81.03;101908.91;2100589;28;45555;-70
2024/01/08 00:39:14;;;;;;;;;23.75;23.75;;;;;7.79;81.14;101900.97;2099144;28;48250;-70
2024/01/08 00:40:15;;;;;;;;;22.25;20.75;;;;;7.79;80.89;101898.34;2105022;28;46398;-70
2024/01/08 00:41:15;;;;;;;;;21.25;20.50;;;;;7.80;80.33;101902.75;2099307;28;45858;-68
2024/01/08 00:42:15;;;;;;;;;27.25;26.00;;;;;7.80;79.90;101904.50;2096939;28;46391;-68
2024/01/08 00:43:16;;;;;;;;;22.00;20.00;;;;;7.78;80.12;101899.22;2096963;28;45750;-68
2024/01/08 00:44:16;;;;;;;;;24.75;23.50;;;;;7.76;79.92;101900.06;2097760;28;46312;-69
2024/01/08 00:45:16;;;;;;;;;22.00;20.00;;;;;7.76;80.15;101895.69;2105004;28;46270;-68
2024/01/08 00:46:17;;;;;;;;;21.75;21.25;;;;;7.79;80.12;101902.75;2105722;27;46417;-71
2024/01/08 00:47:18;;;;;;;;;21.25;21.25;;;;;7.80;80.22;101901.88;2098430;28;46220;-69
2024/01/08 00:48:18;;;;;;;;;24.50;24.50;;;;;7.78;79.47;101899.22;2097441;28;45929;-68
2024/01/08 00:49:18;;;;;;;;;15.25;14.75;;;;;7.77;79.82;101905.38;2097947;28;45690;-71
2024/01/08 00:50:19;;;;;;;;;29.25;22.00;;;;;7.77;79.61;101909.78;2097157;28;46563;-69
2024/01/08 00:51:19;;;;;;;;;22.00;21.75;;;;;7.76;79.38;101906.25;2096957;28;46708;-68
2024/01/08 00:52:20;;;;;;;;;25.25;21.25;;;;;7.75;79.57;101906.19;2097540;28;45849;-68
2024/01/08 00:53:20;;;;;;;;;27.50;25.50;;;;;7.74;79.90;101900.03;2097372;28;45708;-68
2024/01/08 00:54:20;;;;;;;;;24.25;24.25;;;;;7.72;80.02;101904.44;2097203;28;46586;-68
2024/01/08 00:55:20;;;;;;;;;24.00;24.00;;;;;7.76;80.60;101902.72;2096456;28;45138;-69
2024/01/08 00:56:21;;;;;;;;;29.75;25.25;;;;;7.82;80.16;101903.63;2095504;28;46420;-69
2024/01/08 00:57:21;;;;;;;;;26.50;25.75;;;;;7.83;79.92;101904.53;2094563;28;46081;-69
2024/01/08 00:58:21;;;;;;;;;23.25;23.25;;;;;7.83;79.85;101900.13;2097176;28;46536;-68
2024/01/08 00:59:22;;;;;;;;;24.25;24.25;;;;;7.85;79.58;101903.66;2097186;28;45993;-67
2024/01/08 01:00:22;;;;;;;;;23.50;22.00;;;;;7.82;79.48;101903.63;2096507;28;46666;-69
2024/01/08 01:01:22;;;;;;;;;28.00;23.00;;;;;7.83;79.55;101901.88;2097525;28;46724;-69
2024/01/08 01:02:23;;;;;;;;;25.25;22.25;;;;;7.84;79.75;101898.38;2105388;27;45676;-69
2024/01/08 01:03:23;;;;;;;;;26.25;25.00;;;;;7.85;79.74;101895.72;2105281;28;45967;-69
2024/01/08 01:04:23;;;;;;;;;21.75;21.75;;;;;7.86;79.79;101897.50;2095270;28;46969;-70
2024/01/08 01:05:24;;;;;;;;;23.50;23.50;;;;;7.86;79.38;101897.50;2096955;28;46555;-71
2024/01/08 01:06:24;;;;;;;;;19.50;19.50;;;;;7.86;79.35;101894.84;2097138;28;45757;-68
2024/01/08 01:07:26;;;;;;;;;27.25;25.00;;;;;7.86;79.12;101894.84;2097154;28;45664;-67
2024/01/08 01:08:26;;;;;;;;;19.20;17.80;;;;;7.84;78.78;101883.41;2095260;28;46877;-69
2024/01/08 01:09:26;;;;;;;;;16.00;16.00;;;;;7.83;78.55;101901.88;2096140;28;47803;-68
2024/01/08 01:10:27;;;;;;;;;22.25;22.25;;;;;7.82;78.31;101901.00;2097269;28;45560;-68
2024/01/08 01:11:27;;;;;;;;;16.50;16.50;;;;;7.79;78.33;101898.34;2097147;28;46447;-68
2024/01/08 01:12:27;;;;;;;;;23.50;22.00;;;;;7.76;78.19;101895.69;2093389;28;45943;-68
2024/01/08 01:13:28;;;;;;;;;26.25;25.25;;;;;7.76;78.46;101895.69;2096495;28;45855;-69
2024/01/08 01:14:28;;;;;;;;;20.00;20.00;;;;;7.77;78.54;101897.44;2096543;28;47221;-69
2024/01/08 01:15:29;;;;;;;;;24.00;24.00;;;;;7.79;78.67;101900.97;2096649;28;45492;-68
2024/01/08 01:16:30;;;;;;;;;26.25;21.50;;;;;7.79;78.59;101900.09;2096442;28;45213;-69
2024/01/08 01:17:30;;;;;;;;;22.50;22.50;;;;;7.80;78.30;101889.53;2097826;28;45888;-69
2024/01/08 01:18:30;;;;;;;;;24.75;23.50;;;;;7.76;78.40;101895.69;2096827;28;46664;-69
2024/01/08 01:19:30;;;;;;;;;24.75;22.75;;;;;7.79;78.64;101898.34;2097423;28;45733;-68
2024/01/08 01:20:31;;;;;;;;;24.50;22.00;;;;;7.80;78.26;101899.22;2097209;28;45570;-69
2024/01/08 01:21:31;;;;;;;;;21.75;21.00;;;;;7.82;77.71;101902.75;2097586;28;45056;-70
2024/01/08 01:22:31;;;;;;;;;21.00;20.00;;;;;7.78;77.89;101903.63;2097896;28;45485;-69
2024/01/08 01:23:32;;;;;;;;;18.50;18.50;;;;;7.77;77.69;101896.56;2097547;28;46289;-68
2024/01/08 01:24:32;;;;;;;;;20.25;18.50;;;;;7.75;78.02;101890.34;2097211;28;46229;-69
2024/01/08 01:25:33;;;;;;;;;20.25;19.25;;;;;7.76;78.31;101900.97;2096851;28;46392;-68
2024/01/08 01:26:33;;;;;;;;;22.50;22.50;;;;;7.78;78.34;101893.03;2096992;28;46032;-69
2024/01/08 01:27:33;;;;;;;;;19.50;19.50;;;;;7.79;78.26;101882.47;2097343;28;45456;-69
2024/01/08 01:28:34;;;;;;;;;23.50;21.00;;;;;7.80;78.31;101897.47;2096137;28;45262;-69
2024/01/08 01:29:34;;;;;;;;;29.25;24.75;;;;;7.84;78.43;101888.69;2096728;28;46613;-69
2024/01/08 01:30:34;;;;;;;;;18.50;15.50;;;;;7.86;78.84;101892.22;2096954;28;47175;-69
2024/01/08 01:31:35;;;;;;;;;29.00;21.75;;;;;7.83;78.87;101892.19;2096593;28;46666;-70
2024/01/08 01:32:35;;;;;;;;;20.20;19.40;;;;;7.84;78.85;101895.72;2096429;28;48239;-69
2024/01/08 01:33:36;;;;;;;;;22.00;22.00;;;;;7.85;79.15;101894.84;2097036;28;46029;-70
2024/01/08 01:34:37;;;;;;;;;27.00;22.00;;;;;7.84;79.16;101893.97;2096954;28;45747;-69
2024/01/08 01:35:38;;;;;;;;;22.40;21.40;;;;;7.84;78.68;101895.72;2097251;28;45661;-69
2024/01/08 01:36:39;;;;;;;;;21.00;20.00;;;;;7.83;78.56;101893.94;2096706;28;45490;-68
2024/01/08 01:37:42;;;;;;;;;22.40;20.20;;;;;7.81;78.57;101911.56;2097400;28;45675;-70
2024/01/08 01:38:43;;;;;;;;;19.80;18.40;;;;;7.81;78.57;101904.50;2097342;28;45573;-69
2024/01/08 01:39:43;;;;;;;;;18.20;18.20;;;;;7.81;78.49;101901.88;2095992;28;46479;-68
2024/01/08 01:40:46;;;;;;;;;23.75;22.25;;;;;7.81;78.34;101899.22;2096093;28;46689;-69
2024/01/08 01:41:46;;;;;;;;;20.20;20.00;;;;;7.80;78.48;101902.75;2088716;28;46278;-68
2024/01/08 01:42:49;;;;;;;;;22.50;21.00;;;;;7.77;78.66;101900.09;2093003;28;46365;-68
2024/01/08 01:43:49;;;;;;;;;18.80;18.60;;;;;7.81;78.31;101901.00;2096690;28;46296;-68
2024/01/08 01:44:50;;;;;;;;;22.25;20.50;;;;;7.77;78.54;101909.78;2096737;28;47003;-69
2024/01/08 01:45:52;;;;;;;;;19.75;17.75;;;;;7.80;78.77;101913.31;2095133;28;45697;-69
2024/01/08 01:46:55;;;;;;;;;21.00;20.20;;;;;7.80;78.61;101901.88;2096898;28;45646;-69
2024/01/08 01:47:55;;;;;;;;;19.80;19.80;;;;;7.77;78.58;101912.41;2096740;28;46251;-69
2024/01/08 01:48:55;;;;;;;;;19.50;17.50;;;;;7.81;78.82;101917.72;2097093;28;45815;-69
2024/01/08 01:49:56;;;;;;;;;17.25;16.00;;;;;7.83;78.92;101913.34;2097056;28;45550;-68
2024/01/08 01:50:57;;;;;;;;;18.50;17.00;;;;;7.86;78.10;101909.81;2096612;28;46436;-68
2024/01/08 01:51:58;;;;;;;;;10.25;10.25;;;;;7.84;77.54;101906.28;2096954;28;46104;-69
2024/01/08 01:52:58;;;;;;;;;17.20;14.60;;;;;7.84;77.44;101917.75;2097007;28;45977;-69
2024/01/08 01:54:00;;;;;;;;;16.00;15.00;;;;;7.76;77.34;101908.00;2096455;28;46021;-69
2024/01/08 01:55:01;;;;;;;;;14.60;14.60;;;;;7.72;77.61;101908.81;2097191;28;45752;-71
2024/01/08 01:56:01;;;;;;;;;12.80;12.80;;;;;7.69;77.93;101904.41;2097055;28;46125;-69
2024/01/08 01:57:04;;;;;;;;;13.25;13.00;;;;;7.64;77.84;101912.31;2096693;28;46536;-70
2024/01/08 01:58:06;;;;;;;;;12.80;10.80;;;;;7.63;77.57;101918.47;2096725;28;46770;-69
2024/01/08 01:59:07;;;;;;;;;12.80;12.80;;;;;7.62;77.87;101913.13;2104693;28;46356;-69
2024/01/08 02:00:08;;;;;;;;;10.60;10.60;;;;;7.61;77.69;101917.53;2104486;28;45702;-68
2024/01/08 02:01:09;;;;;;;;;12.25;12.25;;;;;7.60;77.83;101909.59;2096199;28;46631;-69
2024/01/08 02:02:11;;;;;;;;;14.75;13.50;;;;;7.61;77.92;101914.88;2094989;28;46339;-69
2024/01/08 02:03:12;;;;;;;;;14.00;14.00;;;;;7.68;77.86;101913.22;2113611;27;45268;-69
2024/01/08 02:04:17;;;;;;;;;13.60;12.20;;;;;7.68;77.42;101915.84;2113091;27;46029;-68
2024/01/08 02:05:17;;;;;;;;;13.40;13.20;;;;;7.65;77.35;101913.19;2096960;28;46333;-68
2024/01/08 02:06:21;;;;;;;;;15.25;13.00;;;;;7.67;77.10;101909.69;2097109;28;46679;-69
2024/01/08 02:07:21;;;;;;;;;15.60;14.60;;;;;7.64;77.05;101917.59;2096706;28;46802;-69
2024/01/08 02:08:22;;;;;;;;;12.00;12.00;;;;;7.63;76.97;101907.00;2096528;28;46531;-68
2024/01/08 02:09:22;;;;;;;;;12.75;12.25;;;;;7.63;77.16;101923.75;2096828;28;46264;-70
2024/01/08 02:10:23;;;;;;;;;8.25;8.00;;;;;7.64;77.27;101925.50;2096726;28;45950;-68
2024/01/08 02:11:23;;;;;;;;;13.00;13.00;;;;;7.63;77.59;101922.84;2097250;28;46036;-68
2024/01/08 02:12:26;;;;;;;;;14.00;12.00;;;;;7.62;77.08;101921.97;2096803;28;45917;-68
2024/01/08 02:13:26;;;;;;;;;12.40;11.80;;;;;7.60;77.04;101922.81;2096876;28;45106;-70
2024/01/08 02:14:26;;;;;;;;;11.50;10.75;;;;;7.61;76.75;101921.94;2096932;28;45837;-69
2024/01/08 02:15:27;;;;;;;;;11.25;11.25;;;;;7.63;77.29;101931.66;2096504;28;46401;-69
2024/01/08 02:16:27;;;;;;;;;11.75;11.75;;;;;7.63;76.97;101922.84;2096823;28;45268;-69
2024/01/08 02:17:27;;;;;;;;;11.50;9.75;;;;;7.64;77.09;101927.28;2096437;28;45541;-68
2024/01/08 02:18:30;;;;;;;;;10.00;9.50;;;;;7.64;76.48;101914.94;2094885;28;46111;-68
2024/01/08 02:19:30;;;;;;;;;12.80;12.60;;;;;7.63;76.50;101926.38;2097167;28;45627;-68
2024/01/08 02:20:30;;;;;;;;;10.00;10.00;;;;;7.62;75.82;101923.69;2096772;28;46485;-69
2024/01/08 02:21:31;;;;;;;;;12.25;10.50;;;;;7.60;75.56;101936.91;2096782;28;45473;-69
2024/01/08 02:22:31;;;;;;;;;13.00;11.75;;;;;7.57;75.46;101923.66;2096787;28;46848;-69
2024/01/08 02:23:31;;;;;;;;;14.75;13.00;;;;;7.56;76.01;101921.91;2096815;28;46031;-69
2024/01/08 02:24:32;;;;;;;;;10.00;10.00;;;;;7.56;75.96;101921.00;2096678;28;46626;-69
2024/01/08 02:25:32;;;;;;;;;12.00;10.00;;;;;7.58;75.79;101919.25;2096901;28;45992;-68
2024/01/08 02:26:34;;;;;;;;;14.50;13.25;;;;;7.57;75.83;101909.56;2096295;28;45663;-69
2024/01/08 02:27:34;;;;;;;;;11.20;10.80;;;;;7.56;75.96;101921.91;2096148;28;46417;-68
2024/01/08 02:28:34;;;;;;;;;13.00;12.25;;;;;7.58;76.05;101922.78;2096451;28;46385;-69
2024/01/08 02:29:35;;;;;;;;;12.75;12.00;;;;;7.59;75.98;101915.75;2096430;28;46673;-68
2024/01/08 02:30:35;;;;;;;;;16.00;13.00;;;;;7.61;75.95;101914.00;2097057;28;45541;-69
2024/01/08 02:31:36;;;;;;;;;13.00;11.25;;;;;7.61;75.70;101916.66;2096248;28;46200;-68
2024/01/08 02:32:36;;;;;;;;;10.25;10.25;;;;;7.62;75.66;101913.13;2096852;28;45861;-68
2024/01/08 02:33:36;;;;;;;;;10.75;10.00;;;;;7.60;75.63;101921.03;2096628;28;46821;-68
2024/01/08 02:34:37;;;;;;;;;14.00;11.50;;;;;7.60;75.17;101917.53;2095605;28;46714;-68
2024/01/08 02:35:37;;;;;;;;;9.50;9.25;;;;;7.59;75.02;101914.00;2095137;28;46997;-68
2024/01/08 02:36:37;;;;;;;;;22.50;21.25;;;;;7.57;74.84;101920.13;2096731;28;45225;-70
2024/01/08 02:37:38;;;;;;;;;22.50;21.25;;;;;7.48;74.66;101915.63;2096691;28;44892;-69
2024/01/08 02:38:38;;;;;;;;;16.75;14.00;;;;;7.41;74.88;101919.09;2097039;28;45444;-70
2024/01/08 02:39:38;;;;;;;;;19.25;15.50;;;;;7.40;75.54;101916.44;2096211;28;46511;-67
2024/01/08 02:40:41;;;;;;;;;14.50;14.50;;;;;7.37;75.68;101915.56;2096607;28;46814;-69
2024/01/08 02:41:42;;;;;;;;;16.60;16.60;;;;;7.35;75.64;101916.38;2096290;28;45631;-68
2024/01/08 02:42:42;;;;;;;;;13.25;13.25;;;;;7.33;75.19;101912.84;2096545;28;45484;-68
2024/01/08 02:43:42;;;;;;;;;13.00;9.25;;;;;7.36;75.23;101920.78;2096586;28;46366;-67
2024/01/08 02:44:43;;;;;;;;;15.00;13.00;;;;;7.33;75.23;101913.72;2096622;28;45406;-68
2024/01/08 02:45:43;;;;;;;;;11.50;9.25;;;;;7.33;75.54;101916.38;2095744;28;45908;-67
2024/01/08 02:46:43;;;;;;;;;11.25;9.75;;;;;7.33;75.34;101911.09;2088188;28;46534;-68
2024/01/08 02:47:44;;;;;;;;;8.75;8.00;;;;;7.31;75.57;101904.03;2092269;28;46397;-68
2024/01/08 02:48:44;;;;;;;;;13.75;10.50;;;;;7.32;75.50;101916.34;2096528;28;45998;-67
2024/01/08 02:49:44;;;;;;;;;9.75;9.25;;;;;7.31;75.63;101920.75;2096657;28;46119;-68
2024/01/08 02:50:45;;;;;;;;;9.00;9.00;;;;;7.32;75.72;101919.00;2096091;28;47931;-67
2024/01/08 02:51:45;;;;;;;;;4.75;4.00;;;;;7.30;75.56;101920.75;2097060;28;45553;-67
2024/01/08 02:52:45;;;;;;;;;10.25;10.25;;;;;7.32;75.96;101919.88;2095509;28;45869;-67
2024/01/08 02:53:46;;;;;;;;;13.00;12.75;;;;;7.32;76.02;101914.59;2096759;28;46229;-68
2024/01/08 02:54:46;;;;;;;;;12.50;10.50;;;;;7.34;76.29;101918.13;2096401;28;45888;-67
2024/01/08 02:55:46;;;;;;;;;12.50;10.75;;;;;7.36;76.20;101919.03;2096656;28;46554;-68
2024/01/08 02:56:47;;;;;;;;;14.50;12.50;;;;;7.36;76.33;101919.03;2096817;28;45773;-67
2024/01/08 02:57:47;;;;;;;;;10.00;9.75;;;;;7.36;76.37;101919.03;2096971;28;45954;-67
2024/01/08 02:58:48;;;;;;;;;15.25;14.75;;;;;7.35;76.27;101925.19;2096626;28;46113;-67
2024/01/08 02:59:48;;;;;;;;;12.25;12.25;;;;;7.35;76.51;101917.25;2096749;28;46094;-67
2024/01/08 03:00:48;;;;;;;;;12.00;11.25;;;;;7.34;76.30;101914.63;2095760;28;46619;-67
2024/01/08 03:01:49;;;;;;;;;15.00;14.50;;;;;7.35;76.90;101919.03;2095829;28;46045;-67
2024/01/08 03:02:49;;;;;;;;;14.50;14.50;;;;;7.35;76.78;101924.31;2096547;28;47176;-67
2024/01/08 03:03:49;;;;;;;;;17.00;15.50;;;;;7.35;77.15;101921.66;2096622;28;46431;-69
2024/01/08 03:04:50;;;;;;;;;14.75;14.75;;;;;7.38;77.04;101916.44;2096538;28;46179;-68
2024/01/08 03:05:50;;;;;;;;;15.25;15.25;;;;;7.38;77.20;101911.16;2104226;27;45141;-67
2024/01/08 03:06:50;;;;;;;;;15.00;15.00;;;;;7.36;77.05;101912.88;2105581;28;45720;-67
2024/01/08 03:07:51;;;;;;;;;15.50;15.50;;;;;7.33;76.71;101916.38;2097855;28;45487;-68
2024/01/08 03:08:51;;;;;;;;;18.50;14.00;;;;;7.33;77.04;101920.78;2098042;28;45783;-68
2024/01/08 03:09:56;;;;;;;;;15.00;14.50;;;;;7.32;77.13;101913.72;2098043;28;46292;-67
2024/01/08 03:10:57;;;;;;;;;16.20;16.20;;;;;7.30;77.49;101921.63;2096232;28;47127;-68
2024/01/08 03:11:57;;;;;;;;;15.50;15.50;;;;;7.32;77.48;101917.25;2097742;28;48011;-68
2024/01/08 03:12:57;;;;;;;;;21.50;20.00;;;;;7.32;77.42;101919.88;2097613;28;46252;-69
2024/01/08 03:13:58;;;;;;;;;20.00;18.75;;;;;7.28;77.20;101918.09;2105721;28;46476;-68
2024/01/08 03:14:58;;;;;;;;;16.75;16.75;;;;;7.29;77.50;101922.50;2105448;28;46366;-69
2024/01/08 03:15:58;;;;;;;;;18.25;18.25;;;;;7.26;77.78;101918.94;2097919;28;46967;-68
2024/01/08 03:16:59;;;;;;;;;16.25;16.25;;;;;7.26;77.91;101916.31;2098045;28;45568;-67
2024/01/08 03:17:59;;;;;;;;;18.25;15.00;;;;;7.23;77.82;101922.41;2097708;28;46793;-68
2024/01/08 03:18:59;;;;;;;;;17.25;15.00;;;;;7.22;77.58;101925.03;2097901;28;45636;-68
2024/01/08 03:20:00;;;;;;;;;18.50;17.50;;;;;7.20;77.76;101918.88;2097872;28;46007;-67
2024/01/08 03:21:00;;;;;;;;;19.50;19.50;;;;;7.19;77.47;101928.53;2098124;28;46267;-68
2024/01/08 03:22:01;;;;;;;;;18.25;15.00;;;;;7.22;77.66;101925.94;2098073;28;45477;-68
2024/01/08 03:23:02;;;;;;;;;15.20;13.40;;;;;7.24;77.50;101918.00;2097558;28;46796;-67
2024/01/08 03:24:03;;;;;;;;;17.50;15.00;;;;;7.28;77.38;101925.13;2097990;28;46573;-67
2024/01/08 03:25:04;;;;;;;;;14.75;14.75;;;;;7.27;77.20;101926.00;2097872;28;46047;-70
2024/01/08 03:26:05;;;;;;;;;19.20;17.00;;;;;7.28;77.26;101930.41;2096876;28;45329;-67
2024/01/08 03:27:06;;;;;;;;;18.20;15.40;;;;;7.24;77.68;101923.28;2098157;28;45307;-67
2024/01/08 03:28:06;;;;;;;;;18.00;17.00;;;;;7.26;77.79;101935.69;2098003;28;46097;-68
2024/01/08 03:29:06;;;;;;;;;18.75;17.50;;;;;7.26;77.69;101926.88;2097567;28;45632;-69
2024/01/08 03:30:07;;;;;;;;;15.50;14.75;;;;;7.25;78.08;101927.75;2096966;28;46245;-67
2024/01/08 03:31:08;;;;;;;;;17.25;16.25;;;;;7.25;77.94;101931.25;2097718;28;46445;-68
2024/01/08 03:32:09;;;;;;;;;20.75;17.25;;;;;7.26;78.47;101933.03;2098005;28;45827;-67
2024/01/08 03:33:09;;;;;;;;;16.40;16.40;;;;;7.27;78.50;101929.53;2097576;28;46470;-68
2024/01/08 03:34:10;;;;;;;;;17.25;15.50;;;;;7.28;78.36;101922.50;2097739;28;45714;-68
2024/01/08 03:35:10;;;;;;;;;21.60;17.40;;;;;7.28;78.00;101930.41;2097640;28;45898;-69
2024/01/08 03:36:11;;;;;;;;;17.75;17.75;;;;;7.26;78.37;101932.16;2097376;28;48145;-67
2024/01/08 03:37:11;;;;;;;;;18.25;18.25;;;;;7.25;78.29;101936.53;2097792;28;46223;-69
2024/01/08 03:38:12;;;;;;;;;14.75;14.75;;;;;7.23;78.18;101935.63;2097316;28;46655;-68
2024/01/08 03:39:13;;;;;;;;;19.50;18.50;;;;;7.22;78.33;101933.84;2097807;28;45935;-68
2024/01/08 03:40:14;;;;;;;;;22.40;18.60;;;;;7.18;78.41;101934.69;2097172;28;46068;-67
2024/01/08 03:41:15;;;;;;;;;19.75;18.25;;;;;7.19;78.60;101938.22;2087692;28;45796;-69
2024/01/08 03:42:15;;;;;;;;;20.60;15.80;;;;;7.17;78.45;101932.91;2105132;27;45947;-70
2024/01/08 03:43:16;;;;;;;;;18.50;17.00;;;;;7.17;78.24;101943.47;2113846;27;46313;-69
2024/01/08 03:44:16;;;;;;;;;19.25;18.00;;;;;7.15;78.45;101936.41;2096603;27;45317;-68
2024/01/08 03:45:16;;;;;;;;;19.75;18.00;;;;;7.12;78.73;101924.06;2098159;28;45472;-67
2024/01/08 03:46:17;;;;;;;;;18.00;16.00;;;;;7.14;78.82;101934.66;2096967;28;45868;-67
2024/01/08 03:47:17;;;;;;;;;18.25;18.25;;;;;7.14;78.88;101940.81;2096978;28;46603;-67
2024/01/08 03:48:18;;;;;;;;;16.75;13.75;;;;;7.15;79.13;101933.78;2097537;28;45842;-67
2024/01/08 03:49:18;;;;;;;;;17.25;16.00;;;;;7.13;78.94;101931.13;2097869;28;45999;-68
2024/01/08 03:50:19;;;;;;;;;18.25;16.25;;;;;7.15;78.75;101936.41;2097904;28;46537;-69
2024/01/08 03:51:19;;;;;;;;;18.75;14.50;;;;;7.16;78.83;101935.53;2097882;28;46349;-68
2024/01/08 03:52:20;;;;;;;;;18.25;15.00;;;;;7.16;78.96;101935.53;2097772;28;45521;-70
2024/01/08 03:53:20;;;;;;;;;15.25;15.00;;;;;7.13;79.04;101932.88;2097700;28;46862;-69
2024/01/08 03:54:20;;;;;;;;;14.50;14.50;;;;;7.12;79.12;101926.72;2097721;28;45427;-67
2024/01/08 03:55:21;;;;;;;;;15.00;14.00;;;;;7.12;79.31;101924.06;2097751;28;45733;-68
2024/01/08 03:56:21;;;;;;;;;16.50;16.00;;;;;7.13;79.31;101932.88;2097691;28;47688;-68
2024/01/08 03:57:21;;;;;;;;;14.75;14.75;;;;;7.10;79.58;101925.78;2097697;28;46518;-67
2024/01/08 03:58:22;;;;;;;;;16.50;16.25;;;;;7.12;79.62;101929.34;2098093;28;45873;-67
2024/01/08 03:59:22;;;;;;;;;14.00;13.50;;;;;7.12;79.18;101921.44;2097793;28;45412;-67
2024/01/08 04:00:24;;;;;;;;;15.25;15.25;;;;;7.07;79.32;101926.63;2094981;28;46246;-69
2024/01/08 04:01:24;;;;;;;;;16.40;14.60;;;;;7.11;79.24;101929.31;2097748;28;46063;-68
2024/01/08 04:02:25;;;;;;;;;17.75;16.25;;;;;7.10;79.27;101936.34;2097417;28;45165;-68
2024/01/08 04:03:25;;;;;;;;;14.00;14.00;;;;;7.14;79.34;101939.94;2097162;28;45536;-69
2024/01/08 04:04:25;;;;;;;;;20.00;16.50;;;;;7.11;79.18;101940.75;2097483;28;45426;-68
2024/01/08 04:05:26;;;;;;;;;11.75;11.75;;;;;7.11;78.97;101942.50;2097732;28;46158;-68
2024/01/08 04:06:26;;;;;;;;;14.00;13.50;;;;;7.11;78.73;101942.50;2097558;28;46101;-68
2024/01/08 04:07:26;;;;;;;;;17.00;14.50;;;;;7.08;78.69;101940.72;2097366;28;46611;-69
2024/01/08 04:08:27;;;;;;;;;16.00;14.00;;;;;7.08;78.38;101941.59;2097249;28;46234;-68
2024/01/08 04:09:27;;;;;;;;;15.00;14.25;;;;;7.07;77.97;101941.59;2097588;28;46880;-69
2024/01/08 04:10:27;;;;;;;;;14.25;11.75;;;;;7.04;77.95;101941.56;2097332;28;46559;-68
2024/01/08 04:11:28;;;;;;;;;13.00;13.00;;;;;7.07;77.88;101941.59;2097299;28;47835;-69
2024/01/08 04:12:28;;;;;;;;;13.75;13.75;;;;;7.02;77.67;101952.09;2097597;28;46199;-68
2024/01/08 04:13:28;;;;;;;;;17.00;13.75;;;;;7.06;77.53;101943.34;2097577;28;45654;-69
2024/01/08 04:14:28;;;;;;;;;19.00;16.25;;;;;7.00;77.09;101943.28;2097575;28;46588;-68
2024/01/08 04:15:29;;;;;;;;;19.75;18.25;;;;;7.04;76.53;101960.03;2097304;28;46576;-68
2024/01/08 04:16:29;;;;;;;;;13.00;11.75;;;;;6.98;75.67;101955.53;2097461;28;46322;-68
2024/01/08 04:17:29;;;;;;;;;14.75;13.25;;;;;6.96;75.88;101954.66;2096599;28;46364;-68
2024/01/08 04:18:30;;;;;;;;;17.00;16.00;;;;;6.92;75.10;101947.56;2096682;28;45571;-68
2024/01/08 04:19:30;;;;;;;;;15.00;14.75;;;;;6.87;75.33;101949.28;2097080;28;45629;-70
2024/01/08 04:20:31;;;;;;;;;13.75;13.75;;;;;6.85;75.60;101958.88;2097391;28;46650;-67
2024/01/08 04:21:31;;;;;;;;;16.25;14.00;;;;;6.84;75.97;101948.31;2097290;28;46647;-70
2024/01/08 04:22:31;;;;;;;;;13.00;13.00;;;;;6.81;76.18;101951.81;2097644;28;46245;-69
2024/01/08 04:23:31;;;;;;;;;14.50;12.75;;;;;6.83;76.28;101954.47;2097300;28;46214;-69
2024/01/08 04:24:32;;;;;;;;;15.25;14.00;;;;;6.80;76.51;101950.03;2097064;28;46737;-68
2024/01/08 04:25:33;;;;;;;;;16.25;14.25;;;;;6.79;76.71;101957.06;2097546;28;45383;-68
2024/01/08 04:26:33;;;;;;;;;15.80;15.80;;;;;6.79;76.80;101943.00;2097575;28;46368;-68
2024/01/08 04:27:33;;;;;;;;;19.75;19.75;;;;;6.80;77.05;101957.97;2097640;28;47009;-70
2024/01/08 04:28:34;;;;;;;;;15.00;15.00;;;;;6.84;76.62;101956.25;2097503;28;45645;-68
2024/01/08 04:29:34;;;;;;;;;18.00;14.50;;;;;6.84;76.89;101966.78;2096840;28;46266;-68
2024/01/08 04:30:35;;;;;;;;;15.75;14.50;;;;;6.83;76.98;101965.03;2097366;28;46564;-68
2024/01/08 04:31:35;;;;;;;;;15.50;15.00;;;;;6.84;76.55;101965.03;2097231;28;46597;-69
2024/01/08 04:32:36;;;;;;;;;14.00;13.50;;;;;6.85;76.76;101955.38;2097477;28;45455;-67
2024/01/08 04:33:36;;;;;;;;;15.50;14.50;;;;;6.86;76.73;101959.78;2095485;28;46166;-67
2024/01/08 04:34:37;;;;;;;;;14.00;12.25;;;;;6.86;76.29;101954.50;2097334;28;45825;-67
2024/01/08 04:35:37;;;;;;;;;18.50;17.00;;;;;6.83;76.14;101963.28;2098044;28;46259;-68
2024/01/08 04:36:42;;;;;;;;;13.75;13.75;;;;;6.82;76.04;101958.84;2096781;28;45583;-68
2024/01/08 04:37:43;;;;;;;;;14.60;14.60;;;;;6.83;76.01;101967.66;2096697;28;46136;-68
2024/01/08 04:38:46;;;;;;;;;16.25;15.75;;;;;6.80;76.03;101963.22;2097993;28;45565;-68